100LL.CA
Aviation Fuel Pricing for Canadians
Please upgrade your browser - Tested with IE9, FireFox, Chrome, Safari

Fuel Prices Airport Info Airport List METAR / TAF Kneeboard RSS

Reference Airport: Big Trout Lake, ON
N 53 49 04   W 089 53 49

CYTL Big Trout Lake, ON
WEATHER
METARCYTL 172154Z AUTO 02003KT 350V080 6SM -SN OVC019 M11/M13 A2976 RMK SLP101
TAFTAF CYTL 171938Z 1720/1808 03005KT P6SM -SN OVC025 TEMPO 1720/1802 21/4SM -SN OVC015 PROB30 1720/1802 1SM -SN VV009 FM180200 05004KT P6SM BKN012 RMK FCST BASED ON AUTO OBS. NXT FCST BY 180200Z
REF N 53 49 04  W 089 53 49    0.6SW    5W (2012)
UTC-6(5)    Elev 730    A5017 LO3 HI4 CAP
OPR Govt of Ontario 807-473-2082
Cert
PFC-1,4
FLT PLN NOTAM FILE CYXL
FIC Winnipeg 866-WXBRIEF (Toll free within Canada) or 866-541-4103 (Toll free within Canada & USA)
WXMETAR AUTO H24 (see COMM). WxCam TAF H24, issue times: 02, 08, 14, 20Z.
SERVICES
RWY DATARwy 14(139)/32(319) 3906x100 gravel Rwy 32 up 0.51%
RCRAprt Foreman 807-537-2366 Ltd maint 14-23Z Mon-Fri exc hols. Rwy strength and cond subject to seasonal & climatic var.
LIGHTING14-(TE ME) AP, 32-(TE ME) AP ARCAL-123.2 type K
COMM
RCOWinnipeg rdo 123.55 (FISE) 126.7 (bcst)
ATFtfc 123.2 5NM 3800 ASL
PALWinnipeg Ctr 135.15
AWOS128.7
NAV
NDBYTL 328 (M) N53 48 57 W89 54 46 Unmonitored
Effective 0901Z 07 December 2017 to 0901Z 01 February 2018